createdAt,value
2023-02-23T00:00:12.309Z,61.54
2023-02-23T00:01:12.281Z,65.40
2023-02-23T00:02:12.267Z,60.83
2023-02-23T00:03:12.325Z,59.59
2023-02-23T00:04:13.267Z,57.28
2023-02-23T00:05:13.257Z,61.46
2023-02-23T00:06:12.278Z,61.91
2023-02-23T00:07:12.243Z,57.92
2023-02-23T00:08:12.248Z,56.50
2023-02-23T00:09:12.229Z,56.66
2023-02-23T00:10:12.225Z,56.38
2023-02-23T00:11:12.236Z,60.90
2023-02-23T00:12:12.219Z,60.12
2023-02-23T00:13:12.269Z,61.14
2023-02-23T00:14:12.216Z,62.16
2023-02-23T00:15:12.200Z,56.96
2023-02-23T00:16:12.206Z,57.17
2023-02-23T00:17:12.195Z,57.20
2023-02-23T00:18:12.179Z,64.01
2023-02-23T00:19:12.211Z,57.18
2023-02-23T00:20:13.175Z,57.31
2023-02-23T00:21:12.191Z,61.82
2023-02-23T00:22:12.155Z,57.19
2023-02-23T00:23:12.187Z,57.13
2023-02-23T00:24:12.174Z,57.60
2023-02-23T00:25:12.167Z,57.05
2023-02-23T00:26:12.142Z,60.84
2023-02-23T00:27:12.138Z,58.23
2023-02-23T00:28:12.133Z,57.82
2023-02-23T00:29:12.144Z,62.16
2023-02-23T00:30:12.117Z,64.82
2023-02-23T00:31:12.214Z,57.88
2023-02-23T00:32:12.298Z,57.55
2023-02-23T00:33:12.108Z,57.67
2023-02-23T00:34:12.117Z,57.79
2023-02-23T00:35:12.086Z,57.52
2023-02-23T00:36:12.089Z,57.15
2023-02-23T00:37:12.100Z,57.62
2023-02-23T00:38:12.090Z,57.99
2023-02-23T00:39:12.112Z,61.56
2023-02-23T00:40:12.106Z,57.37
2023-02-23T00:41:14.304Z,57.11
2023-02-23T00:42:13.058Z,58.20
2023-02-23T00:43:12.043Z,57.08
2023-02-23T00:44:12.062Z,56.93
2023-02-23T00:45:12.060Z,57.03
2023-02-23T00:46:12.070Z,61.11
2023-02-23T00:47:12.059Z,58.06
2023-02-23T00:48:12.040Z,57.79
2023-02-23T00:49:12.013Z,57.04
2023-02-23T00:50:12.027Z,56.92
2023-02-23T00:51:12.064Z,61.17
2023-02-23T00:52:12.002Z,57.20
2023-02-23T00:53:12.006Z,56.73
2023-02-23T00:54:11.985Z,57.09
2023-02-23T00:55:11.988Z,57.08
2023-02-23T00:56:11.972Z,57.02
2023-02-23T00:57:12.041Z,56.77
2023-02-23T00:58:11.966Z,56.71
2023-02-23T00:59:11.981Z,56.37
2023-02-23T01:00:11.955Z,56.19
2023-02-23T01:01:11.969Z,56.50
2023-02-23T01:02:11.990Z,58.75
2023-02-23T01:03:11.939Z,60.80
2023-02-23T01:04:11.955Z,59.70
2023-02-23T01:05:12.756Z,56.47
2023-02-23T01:06:11.929Z,56.74
2023-02-23T01:07:11.952Z,58.80
2023-02-23T01:08:11.901Z,56.71
2023-02-23T01:09:12.836Z,59.75
2023-02-23T01:10:11.929Z,60.66
2023-02-23T01:11:11.907Z,59.74
2023-02-23T01:12:11.874Z,60.46
2023-02-23T01:13:11.922Z,56.60
2023-02-23T01:14:11.996Z,60.53
2023-02-23T01:15:12.764Z,58.19
2023-02-23T01:16:11.850Z,66.29
2023-02-23T01:17:11.873Z,59.90
2023-02-23T01:18:11.875Z,57.05
2023-02-23T01:19:11.860Z,56.64
2023-02-23T01:20:11.860Z,56.20
2023-02-23T01:21:11.863Z,56.59
2023-02-23T01:22:11.841Z,61.26
2023-02-23T01:23:11.810Z,60.30
2023-02-23T01:24:12.360Z,56.49
2023-02-23T01:25:11.824Z,61.24
2023-02-23T01:26:11.804Z,60.48
2023-02-23T01:27:11.806Z,56.81
2023-02-23T01:28:11.820Z,59.13
2023-02-23T01:29:11.789Z,56.14
2023-02-23T01:30:12.364Z,58.86
2023-02-23T01:31:11.904Z,60.02
2023-02-23T01:32:11.947Z,62.30
2023-02-23T01:33:11.759Z,60.37
2023-02-23T01:34:11.780Z,60.29
2023-02-23T01:35:11.775Z,56.68
2023-02-23T01:36:11.747Z,56.76
2023-02-23T01:37:11.733Z,60.24
2023-02-23T01:38:11.761Z,56.72
2023-02-23T01:39:11.737Z,56.39
2023-02-23T01:40:11.725Z,56.43
2023-02-23T01:41:11.719Z,56.46
2023-02-23T01:42:11.733Z,59.75
2023-02-23T01:43:11.713Z,56.00
2023-02-23T01:44:11.690Z,56.24
2023-02-23T01:45:11.708Z,59.37
2023-02-23T01:46:11.737Z,56.39
2023-02-23T01:47:11.692Z,56.17
2023-02-23T01:48:11.648Z,59.72
2023-02-23T01:49:11.691Z,59.97
2023-02-23T01:50:11.677Z,59.82
2023-02-23T01:51:11.658Z,55.97
2023-02-23T01:52:11.681Z,60.54
2023-02-23T01:53:12.328Z,57.77
2023-02-23T01:54:11.660Z,56.15
2023-02-23T01:55:11.641Z,55.96
2023-02-23T01:56:11.631Z,56.15
2023-02-23T01:57:11.613Z,56.27
2023-02-23T01:58:11.625Z,55.80
2023-02-23T01:59:11.609Z,55.87
2023-02-23T02:00:11.602Z,55.98
2023-02-23T02:01:11.645Z,56.15
2023-02-23T02:02:12.250Z,57.14
2023-02-23T02:03:11.577Z,55.95
2023-02-23T02:04:11.582Z,56.09
2023-02-23T02:05:11.633Z,55.95
2023-02-23T02:06:11.574Z,56.10
2023-02-23T02:07:11.564Z,64.67
2023-02-23T02:08:11.538Z,61.61
2023-02-23T02:09:11.530Z,55.82
2023-02-23T02:10:11.537Z,62.36
2023-02-23T02:11:11.544Z,56.04
2023-02-23T02:12:11.540Z,55.70
2023-02-23T02:13:11.558Z,60.04
2023-02-23T02:14:11.561Z,60.94
2023-02-23T02:15:11.501Z,60.72
2023-02-23T02:16:11.514Z,55.99
2023-02-23T02:17:11.518Z,56.25
2023-02-23T02:18:11.489Z,61.42
2023-02-23T02:19:11.493Z,60.71
2023-02-23T02:20:11.480Z,55.76
2023-02-23T02:21:11.542Z,55.30
2023-02-23T02:22:11.481Z,60.13
2023-02-23T02:23:11.453Z,54.17
2023-02-23T02:24:11.475Z,54.33
2023-02-23T02:25:11.499Z,56.59
2023-02-23T02:26:11.440Z,57.80
2023-02-23T02:27:11.451Z,61.31
2023-02-23T02:28:11.435Z,56.19
2023-02-23T02:29:11.455Z,63.45
2023-02-23T02:30:11.407Z,58.77
2023-02-23T02:31:11.444Z,55.47
2023-02-23T02:32:11.567Z,59.74
2023-02-23T02:33:11.406Z,55.66
2023-02-23T02:34:11.402Z,55.83
2023-02-23T02:35:11.412Z,55.95
2023-02-23T02:36:11.399Z,55.92
2023-02-23T02:37:11.374Z,55.78
2023-02-23T02:38:11.384Z,56.21
2023-02-23T02:39:11.383Z,56.16
2023-02-23T02:40:11.349Z,59.36
2023-02-23T02:41:11.355Z,55.86
2023-02-23T02:42:11.346Z,56.03
2023-02-23T02:43:11.328Z,59.41
2023-02-23T02:44:11.367Z,60.01
2023-02-23T02:45:11.321Z,55.56
2023-02-23T02:46:11.371Z,55.90
2023-02-23T02:47:11.320Z,64.09
2023-02-23T02:48:11.325Z,59.03
2023-02-23T02:49:11.306Z,56.20
2023-02-23T02:50:11.366Z,56.25
2023-02-23T02:51:11.414Z,56.25
2023-02-23T02:52:11.300Z,56.27
2023-02-23T02:53:11.295Z,57.97
2023-02-23T02:54:11.316Z,65.14
2023-02-23T02:55:11.292Z,55.70
2023-02-23T02:56:11.259Z,56.03
2023-02-23T02:57:11.279Z,56.14
2023-02-23T02:58:11.252Z,58.13
2023-02-23T02:59:11.304Z,57.13
2023-02-23T03:00:11.268Z,59.51
2023-02-23T03:01:11.273Z,68.64
2023-02-23T03:02:11.229Z,60.60
2023-02-23T03:03:11.228Z,60.08
2023-02-23T03:04:11.208Z,58.69
2023-02-23T03:05:11.280Z,56.42
2023-02-23T03:06:11.233Z,62.32
2023-02-23T03:07:11.208Z,58.45
2023-02-23T03:08:11.248Z,56.96
2023-02-23T03:09:11.218Z,60.93
2023-02-23T03:10:11.193Z,62.41
2023-02-23T03:11:11.188Z,55.90
2023-02-23T03:12:11.228Z,55.31
2023-02-23T03:13:11.166Z,55.27
2023-02-23T03:14:11.180Z,56.25
2023-02-23T03:15:11.157Z,58.50
2023-02-23T03:16:11.331Z,59.19
2023-02-23T03:17:11.147Z,60.44
2023-02-23T03:18:11.146Z,59.66
2023-02-23T03:19:11.137Z,55.85
2023-02-23T03:20:11.146Z,59.78
2023-02-23T03:21:11.173Z,60.10
2023-02-23T03:22:11.125Z,60.84
2023-02-23T03:23:11.121Z,55.42
2023-02-23T03:24:11.814Z,55.80
2023-02-23T03:25:11.109Z,61.76
2023-02-23T03:26:11.101Z,57.57
2023-02-23T03:27:11.092Z,64.09
2023-02-23T03:28:11.086Z,66.41
2023-02-23T03:29:11.097Z,55.49
2023-02-23T03:30:11.118Z,58.73
2023-02-23T03:31:11.061Z,61.59
2023-02-23T03:32:11.144Z,70.37
2023-02-23T03:33:11.850Z,58.42
2023-02-23T03:34:11.038Z,61.49
2023-02-23T03:35:11.051Z,55.58
2023-02-23T03:36:11.035Z,67.15
2023-02-23T03:37:11.036Z,56.92
2023-02-23T03:38:11.017Z,55.66
2023-02-23T03:39:11.013Z,55.86
2023-02-23T03:40:11.023Z,58.88
2023-02-23T03:41:11.027Z,59.21
2023-02-23T03:42:11.011Z,56.15
2023-02-23T03:43:10.993Z,62.69
2023-02-23T03:44:11.000Z,57.83
2023-02-23T03:45:11.072Z,64.96
2023-02-23T03:46:10.994Z,61.23
2023-02-23T03:47:11.008Z,59.81
2023-02-23T03:48:10.960Z,61.83
2023-02-23T03:49:10.964Z,60.61
2023-02-23T03:50:10.973Z,67.50
2023-02-23T03:51:10.955Z,66.22
2023-02-23T03:52:10.963Z,60.23
2023-02-23T03:53:10.933Z,59.36
2023-02-23T03:54:10.937Z,73.68
2023-02-23T03:55:10.945Z,59.68
2023-02-23T03:56:11.839Z,64.38
2023-02-23T03:57:11.934Z,59.11
2023-02-23T03:58:10.928Z,59.69
2023-02-23T03:59:10.922Z,62.41
2023-02-23T04:00:10.902Z,55.21
2023-02-23T04:01:10.891Z,60.87
2023-02-23T04:02:10.972Z,63.09
2023-02-23T04:03:10.941Z,66.71
2023-02-23T04:04:10.872Z,64.93
2023-02-23T04:05:10.880Z,65.16
2023-02-23T04:06:10.875Z,62.25
2023-02-23T04:07:10.867Z,66.28
2023-02-23T04:08:10.853Z,64.90
2023-02-23T04:09:10.830Z,64.37
2023-02-23T04:10:10.851Z,71.06
2023-02-23T04:11:10.850Z,60.61
2023-02-23T04:12:10.850Z,63.52
2023-02-23T04:13:10.831Z,63.92
2023-02-23T04:14:10.828Z,57.32
2023-02-23T04:15:10.837Z,65.86
2023-02-23T04:16:10.861Z,62.58
2023-02-23T04:17:10.831Z,65.78
2023-02-23T04:18:10.852Z,64.95
2023-02-23T04:19:10.809Z,66.53
2023-02-23T04:20:10.785Z,68.46
2023-02-23T04:21:10.808Z,63.30
2023-02-23T04:22:10.785Z,68.76
2023-02-23T04:23:10.796Z,63.27
2023-02-23T04:24:10.755Z,68.67
2023-02-23T04:25:10.765Z,66.08
2023-02-23T04:26:10.750Z,58.89
2023-02-23T04:27:10.758Z,60.45
2023-02-23T04:28:10.756Z,64.81
2023-02-23T04:29:10.757Z,66.40
2023-02-23T04:30:10.744Z,68.06
2023-02-23T04:31:10.733Z,71.38
2023-02-23T04:32:10.762Z,68.39
2023-02-23T04:33:10.725Z,64.40
2023-02-23T04:34:10.709Z,69.92
2023-02-23T04:35:10.727Z,64.24
2023-02-23T04:36:10.724Z,71.12
2023-02-23T04:37:10.706Z,66.09
2023-02-23T04:38:10.685Z,68.79
2023-02-23T04:39:10.762Z,69.57
2023-02-23T04:40:10.699Z,64.56
2023-02-23T04:41:10.692Z,70.81
2023-02-23T04:42:10.728Z,64.58
2023-02-23T04:43:10.660Z,66.62
2023-02-23T04:44:10.690Z,66.91
2023-02-23T04:45:10.681Z,66.35
2023-02-23T04:46:10.709Z,65.45
2023-02-23T04:47:11.648Z,67.05
2023-02-23T04:48:10.615Z,65.79
2023-02-23T04:49:10.619Z,65.52
2023-02-23T04:50:10.634Z,67.10
2023-02-23T04:51:10.627Z,72.95
2023-02-23T04:52:10.597Z,65.51
2023-02-23T04:53:10.604Z,66.27
2023-02-23T04:54:10.688Z,69.19
2023-02-23T04:55:10.577Z,72.06
2023-02-23T04:56:10.637Z,70.50
2023-02-23T04:57:10.581Z,62.20
2023-02-23T04:58:10.572Z,72.84
2023-02-23T04:59:10.598Z,75.14
2023-02-23T05:00:10.547Z,70.48
2023-02-23T05:01:10.614Z,71.59
2023-02-23T05:02:10.554Z,69.91
2023-02-23T05:03:10.608Z,68.51
2023-02-23T05:04:10.565Z,65.97
2023-02-23T05:05:10.576Z,70.09
2023-02-23T05:06:10.558Z,65.98
2023-02-23T05:07:10.581Z,65.68
2023-02-23T05:08:10.553Z,67.70
2023-02-23T05:09:10.513Z,63.45
2023-02-23T05:10:10.502Z,66.50
2023-02-23T05:11:10.503Z,70.62
2023-02-23T05:12:10.753Z,69.00
2023-02-23T05:13:10.500Z,68.82
2023-02-23T05:14:10.505Z,68.48
2023-02-23T05:15:10.471Z,61.46
2023-02-23T05:16:10.574Z,70.03
2023-02-23T05:17:10.460Z,70.84
2023-02-23T05:18:10.465Z,68.99
2023-02-23T05:19:10.438Z,68.72
2023-02-23T05:20:10.520Z,66.72
2023-02-23T05:21:10.460Z,71.07
2023-02-23T05:22:10.413Z,73.70
2023-02-23T05:23:10.514Z,73.32
2023-02-23T05:24:10.458Z,79.49
2023-02-23T05:25:10.486Z,73.85
2023-02-23T05:26:10.458Z,69.46
2023-02-23T05:27:10.440Z,71.04
2023-02-23T05:28:11.389Z,73.74
2023-02-23T05:29:10.418Z,71.22
2023-02-23T05:30:10.436Z,71.59
2023-02-23T05:31:10.597Z,70.80
2023-02-23T05:32:10.502Z,70.15
2023-02-23T05:33:10.347Z,69.86
2023-02-23T05:34:10.423Z,69.95
2023-02-23T05:35:11.336Z,69.35
2023-02-23T05:36:10.400Z,67.84
2023-02-23T05:37:10.396Z,70.19
2023-02-23T05:38:11.354Z,72.36
2023-02-23T05:39:10.390Z,71.35
2023-02-23T05:40:10.460Z,72.36
2023-02-23T05:41:10.370Z,71.98
2023-02-23T05:42:10.393Z,72.86
2023-02-23T05:43:10.378Z,69.68
2023-02-23T05:44:10.297Z,71.49
2023-02-23T05:45:10.335Z,71.51
2023-02-23T05:46:10.373Z,70.16
2023-02-23T05:47:10.453Z,73.32
2023-02-23T05:48:10.383Z,72.30
2023-02-23T05:49:12.377Z,73.10
2023-02-23T05:50:11.275Z,70.79
2023-02-23T05:51:10.848Z,71.67
2023-02-23T05:52:10.298Z,69.59
2023-02-23T05:53:10.256Z,71.26
2023-02-23T05:54:10.296Z,70.60
2023-02-23T05:55:10.243Z,73.07
2023-02-23T05:56:10.229Z,68.97
2023-02-23T05:57:10.194Z,70.49
2023-02-23T05:58:10.273Z,66.40
2023-02-23T05:59:10.230Z,64.46
2023-02-23T06:00:10.229Z,68.90
2023-02-23T06:01:10.858Z,74.83
2023-02-23T06:02:10.227Z,67.22
2023-02-23T06:03:10.213Z,70.46
2023-02-23T06:04:10.240Z,72.68
2023-02-23T06:05:10.204Z,72.91
2023-02-23T06:06:10.217Z,73.06
2023-02-23T06:07:10.182Z,71.04
2023-02-23T06:08:10.154Z,71.56
2023-02-23T06:09:10.193Z,70.24
2023-02-23T06:10:10.144Z,73.13
2023-02-23T06:11:10.168Z,73.10
2023-02-23T06:12:10.146Z,69.73
2023-02-23T06:13:10.148Z,71.18
2023-02-23T06:14:10.122Z,71.32
2023-02-23T06:15:10.170Z,68.85
2023-02-23T06:16:10.216Z,72.06
2023-02-23T06:17:10.155Z,74.50
2023-02-23T06:18:10.084Z,72.95
2023-02-23T06:19:10.148Z,71.49
2023-02-23T06:20:10.102Z,73.54
2023-02-23T06:21:10.073Z,70.44
2023-02-23T06:22:10.056Z,71.14
2023-02-23T06:23:10.082Z,67.81
2023-02-23T06:24:10.049Z,71.65
2023-02-23T06:25:10.823Z,72.21
2023-02-23T06:26:10.089Z,73.67
2023-02-23T06:27:10.032Z,74.19
2023-02-23T06:28:10.051Z,74.21
2023-02-23T06:29:10.033Z,71.29
2023-02-23T06:30:10.055Z,74.68
2023-02-23T06:31:10.110Z,75.30
2023-02-23T06:32:10.163Z,73.57
2023-02-23T06:33:10.859Z,72.70
2023-02-23T06:34:10.001Z,71.02
2023-02-23T06:35:10.010Z,68.77
2023-02-23T06:36:10.008Z,72.52
2023-02-23T06:37:10.061Z,73.73
2023-02-23T06:38:09.994Z,75.14
2023-02-23T06:39:09.967Z,74.47
2023-02-23T06:40:09.980Z,74.64
2023-02-23T06:41:09.956Z,72.99
2023-02-23T06:42:10.016Z,67.25
2023-02-23T06:43:09.951Z,74.26
2023-02-23T06:44:10.832Z,72.76
2023-02-23T06:45:09.963Z,70.51
2023-02-23T06:46:09.979Z,70.94
2023-02-23T06:47:09.924Z,71.42
2023-02-23T06:48:09.924Z,70.34
2023-02-23T06:49:09.895Z,74.94
2023-02-23T06:50:09.928Z,72.23
2023-02-23T06:51:09.887Z,71.99
2023-02-23T06:52:09.888Z,68.33
2023-02-23T06:53:09.916Z,72.93
2023-02-23T06:54:09.904Z,67.74
2023-02-23T06:55:09.859Z,70.32
2023-02-23T06:56:11.594Z,72.23
2023-02-23T06:57:09.888Z,75.12
2023-02-23T06:58:09.856Z,72.87
2023-02-23T06:59:09.825Z,67.82
2023-02-23T07:00:09.867Z,72.83
2023-02-23T07:01:09.838Z,74.19
2023-02-23T07:02:09.819Z,73.69
2023-02-23T07:03:09.871Z,73.59
2023-02-23T07:04:09.871Z,74.13
2023-02-23T07:05:09.795Z,75.33
2023-02-23T07:06:09.859Z,70.49
2023-02-23T07:07:09.887Z,74.33
2023-02-23T07:08:09.853Z,72.31
2023-02-23T07:09:09.767Z,75.10
2023-02-23T07:10:09.780Z,72.69
2023-02-23T07:11:09.831Z,69.32
2023-02-23T07:12:09.756Z,74.04
2023-02-23T07:13:09.743Z,70.58
2023-02-23T07:14:12.885Z,74.60
2023-02-23T07:15:11.785Z,71.69
2023-02-23T07:16:09.791Z,70.22
2023-02-23T07:17:12.211Z,73.11
2023-02-23T07:18:09.823Z,68.96
2023-02-23T07:19:09.717Z,71.14
2023-02-23T07:20:09.729Z,68.14
2023-02-23T07:21:10.350Z,72.26
2023-02-23T07:22:09.688Z,70.40
2023-02-23T07:23:09.736Z,70.33
2023-02-23T07:24:09.683Z,67.55
2023-02-23T07:25:10.320Z,71.70
2023-02-23T07:26:09.666Z,65.52
2023-02-23T07:27:09.719Z,69.39
2023-02-23T07:28:10.359Z,69.66
2023-02-23T07:29:09.695Z,73.14
2023-02-23T07:30:09.651Z,71.17
2023-02-23T07:31:09.656Z,68.41
2023-02-23T07:32:09.763Z,73.42
2023-02-23T07:33:09.607Z,72.04
2023-02-23T07:34:09.606Z,70.56
2023-02-23T07:35:09.614Z,70.47
2023-02-23T07:36:09.596Z,71.02
2023-02-23T07:37:09.576Z,68.94
2023-02-23T07:38:10.591Z,69.82
2023-02-23T07:39:09.576Z,70.04
2023-02-23T07:40:09.564Z,76.67
2023-02-23T07:41:09.557Z,73.10
2023-02-23T07:42:09.563Z,73.00
2023-02-23T07:43:09.565Z,66.74
2023-02-23T07:44:09.522Z,74.53
2023-02-23T07:45:10.531Z,72.31
2023-02-23T07:46:09.645Z,73.31
2023-02-23T07:47:09.515Z,69.20
2023-02-23T07:48:09.536Z,66.43
2023-02-23T07:49:09.499Z,72.17
2023-02-23T07:50:09.508Z,68.71
2023-02-23T07:51:10.162Z,68.90
2023-02-23T07:52:10.479Z,70.24
2023-02-23T07:53:09.473Z,70.70
2023-02-23T07:54:09.497Z,69.39
2023-02-23T07:55:09.481Z,72.52
2023-02-23T07:56:09.487Z,69.58
2023-02-23T07:57:09.469Z,71.47
2023-02-23T07:58:09.459Z,68.22
2023-02-23T07:59:09.485Z,67.46
2023-02-23T08:00:09.443Z,77.61
2023-02-23T08:01:09.460Z,77.09
2023-02-23T08:02:09.433Z,72.65
2023-02-23T08:03:09.425Z,76.42
2023-02-23T08:04:09.434Z,71.75
2023-02-23T08:05:09.422Z,70.72
2023-02-23T08:06:09.389Z,66.05
2023-02-23T08:07:09.397Z,71.95
2023-02-23T08:08:09.384Z,71.54
2023-02-23T08:09:09.437Z,70.67
2023-02-23T08:10:09.397Z,71.46
2023-02-23T08:11:10.393Z,70.60
2023-02-23T08:12:09.362Z,71.79
2023-02-23T08:13:09.451Z,70.91
2023-02-23T08:14:09.350Z,70.30
2023-02-23T08:15:09.374Z,66.64
2023-02-23T08:16:09.332Z,66.06
2023-02-23T08:17:09.328Z,68.45
2023-02-23T08:18:09.360Z,73.36
2023-02-23T08:19:09.320Z,69.07
2023-02-23T08:20:09.338Z,73.73
2023-02-23T08:21:09.300Z,64.54
2023-02-23T08:22:10.229Z,69.05
2023-02-23T08:23:10.283Z,74.23
2023-02-23T08:24:09.272Z,70.54
2023-02-23T08:25:09.381Z,69.26
2023-02-23T08:26:09.281Z,66.97
2023-02-23T08:27:09.260Z,68.23
2023-02-23T08:28:09.245Z,69.64
2023-02-23T08:29:09.277Z,72.42
2023-02-23T08:30:09.243Z,73.87
2023-02-23T08:31:09.325Z,77.11
2023-02-23T08:32:09.284Z,67.84
2023-02-23T08:33:09.219Z,70.96
2023-02-23T08:34:09.220Z,71.59
2023-02-23T08:35:09.204Z,66.02
2023-02-23T08:36:09.215Z,65.06
2023-02-23T08:37:09.200Z,74.06
2023-02-23T08:38:09.177Z,71.30
2023-02-23T08:39:09.182Z,67.11
2023-02-23T08:40:09.167Z,70.98
2023-02-23T08:41:09.174Z,72.39
2023-02-23T08:42:09.196Z,73.82
2023-02-23T08:43:09.149Z,74.29
2023-02-23T08:44:09.168Z,72.44
2023-02-23T08:45:09.159Z,70.73
2023-02-23T08:46:09.151Z,72.56
2023-02-23T08:47:09.146Z,72.21
2023-02-23T08:48:09.151Z,70.29
2023-02-23T08:49:09.104Z,70.40
2023-02-23T08:50:09.115Z,72.53
2023-02-23T08:51:09.136Z,69.60
2023-02-23T08:52:09.108Z,71.38
2023-02-23T08:53:09.077Z,70.45
2023-02-23T08:54:09.070Z,73.21
2023-02-23T08:55:09.084Z,70.55
2023-02-23T08:56:09.056Z,71.42
2023-02-23T08:57:10.714Z,69.26
2023-02-23T08:58:09.062Z,72.18
2023-02-23T08:59:09.135Z,70.31
2023-02-23T09:00:09.023Z,72.23
2023-02-23T09:01:10.097Z,73.83
2023-02-23T09:02:09.018Z,69.51
2023-02-23T09:03:09.052Z,72.30
2023-02-23T09:04:08.999Z,71.42
2023-02-23T09:05:09.034Z,71.54
2023-02-23T09:06:09.002Z,71.14
2023-02-23T09:07:08.996Z,71.39
2023-02-23T09:08:08.989Z,72.15
2023-02-23T09:09:09.046Z,72.67
2023-02-23T09:10:08.973Z,73.37
2023-02-23T09:11:09.050Z,71.75
2023-02-23T09:12:08.953Z,72.75
2023-02-23T09:13:08.949Z,73.64
2023-02-23T09:14:08.966Z,70.06
2023-02-23T09:15:09.887Z,75.45
2023-02-23T09:16:08.970Z,72.90
2023-02-23T09:17:08.935Z,75.45
2023-02-23T09:18:08.918Z,71.79
2023-02-23T09:19:08.913Z,69.07
2023-02-23T09:20:08.912Z,71.13
2023-02-23T09:21:08.884Z,71.25
2023-02-23T09:22:08.892Z,69.27
2023-02-23T09:23:09.834Z,69.77
2023-02-23T09:24:08.884Z,71.68
2023-02-23T09:25:08.894Z,70.15
2023-02-23T09:26:08.898Z,69.99
2023-02-23T09:27:08.868Z,70.02
2023-02-23T09:28:08.840Z,71.13
2023-02-23T09:29:08.851Z,67.59
2023-02-23T09:30:08.860Z,70.30
2023-02-23T09:31:09.047Z,74.47
2023-02-23T09:32:09.031Z,70.51
2023-02-23T09:33:08.824Z,67.90
2023-02-23T09:34:08.829Z,68.10
2023-02-23T09:35:08.818Z,74.03
2023-02-23T09:36:08.832Z,68.18
2023-02-23T09:37:08.792Z,69.74
2023-02-23T09:38:08.790Z,69.77
2023-02-23T09:39:08.771Z,71.67
2023-02-23T09:40:08.793Z,72.42
2023-02-23T09:41:08.760Z,71.09
2023-02-23T09:42:08.755Z,73.91
2023-02-23T09:43:08.747Z,64.57
2023-02-23T09:44:08.740Z,64.10
2023-02-23T09:45:08.720Z,72.63
2023-02-23T09:46:08.752Z,66.24
2023-02-23T09:47:10.258Z,70.30
2023-02-23T09:48:08.704Z,71.82
2023-02-23T09:49:08.803Z,71.59
2023-02-23T09:50:08.713Z,75.94
2023-02-23T09:51:08.708Z,76.88
2023-02-23T09:52:08.690Z,75.04
2023-02-23T09:53:08.736Z,74.29
2023-02-23T09:54:08.700Z,74.59
2023-02-23T09:55:08.661Z,73.31
2023-02-23T09:56:08.653Z,73.20
2023-02-23T09:57:08.658Z,74.24
2023-02-23T09:58:08.690Z,71.45
2023-02-23T09:59:10.089Z,73.13
2023-02-23T10:00:09.639Z,72.36
2023-02-23T10:01:08.679Z,73.05
2023-02-23T10:02:08.665Z,69.61
2023-02-23T10:03:08.727Z,68.10
2023-02-23T10:04:08.619Z,70.83
2023-02-23T10:05:08.660Z,68.79
2023-02-23T10:06:08.605Z,71.03
2023-02-23T10:07:08.599Z,71.72
2023-02-23T10:08:08.609Z,72.47
2023-02-23T10:09:08.622Z,69.70
2023-02-23T10:10:08.581Z,73.54
2023-02-23T10:11:08.562Z,69.62
2023-02-23T10:12:08.557Z,69.96
2023-02-23T10:13:08.548Z,72.16
2023-02-23T10:14:08.553Z,67.97
2023-02-23T10:15:08.552Z,71.05
2023-02-23T10:16:08.559Z,71.71
2023-02-23T10:17:08.539Z,73.25
2023-02-23T10:18:08.517Z,70.40
2023-02-23T10:19:08.514Z,69.37
2023-02-23T10:20:08.517Z,68.75
2023-02-23T10:21:08.496Z,67.95
2023-02-23T10:22:08.496Z,71.07
2023-02-23T10:23:08.498Z,70.42
2023-02-23T10:24:08.554Z,69.68
2023-02-23T10:25:08.509Z,69.57
2023-02-23T10:26:08.537Z,70.41
2023-02-23T10:27:08.445Z,71.12
2023-02-23T10:28:09.484Z,70.12
2023-02-23T10:29:08.463Z,71.95
2023-02-23T10:30:08.487Z,70.98
2023-02-23T10:31:08.505Z,71.15
2023-02-23T10:32:08.564Z,70.13
2023-02-23T10:33:08.431Z,71.40
2023-02-23T10:34:08.430Z,69.53
2023-02-23T10:35:09.370Z,72.34
2023-02-23T10:36:13.537Z,77.54
2023-02-23T10:37:10.404Z,77.01
2023-02-23T10:38:08.391Z,73.79
2023-02-23T10:39:08.383Z,74.86
2023-02-23T10:40:08.425Z,75.76
2023-02-23T10:41:08.378Z,77.78
2023-02-23T10:42:08.364Z,79.37
2023-02-23T10:43:08.367Z,70.59
2023-02-23T10:44:16.767Z,68.99
2023-02-23T10:45:10.351Z,70.27
2023-02-23T10:46:08.417Z,70.11
2023-02-23T10:47:08.334Z,73.32
2023-02-23T10:48:08.432Z,69.66
2023-02-23T10:49:08.323Z,70.45
2023-02-23T10:50:08.327Z,69.61
2023-02-23T10:51:08.351Z,71.62
2023-02-23T10:52:08.302Z,74.10
2023-02-23T10:53:08.299Z,71.77
2023-02-23T10:54:08.336Z,70.79
2023-02-23T10:55:08.285Z,71.35
2023-02-23T10:56:08.290Z,71.67
2023-02-23T10:57:08.265Z,70.32
2023-02-23T10:58:08.302Z,75.27
2023-02-23T10:59:08.299Z,77.07
2023-02-23T11:00:08.263Z,78.00
2023-02-23T11:01:08.252Z,77.45
2023-02-23T11:02:08.273Z,70.01
2023-02-23T11:03:08.229Z,75.92
2023-02-23T11:04:08.246Z,75.31
2023-02-23T11:05:08.221Z,71.95
2023-02-23T11:06:08.229Z,72.20
2023-02-23T11:07:08.310Z,79.24
2023-02-23T11:08:08.221Z,79.33
2023-02-23T11:09:08.202Z,82.81
2023-02-23T11:10:08.201Z,80.93
2023-02-23T11:11:08.223Z,68.89
2023-02-23T11:12:08.220Z,74.44
2023-02-23T11:13:08.172Z,71.28
2023-02-23T11:14:08.196Z,69.57
2023-02-23T11:15:08.165Z,70.61
2023-02-23T11:16:08.276Z,72.10
2023-02-23T11:17:08.168Z,71.04
2023-02-23T11:18:08.173Z,75.36
2023-02-23T11:19:09.150Z,71.72
2023-02-23T11:20:08.130Z,79.05
2023-02-23T11:21:08.122Z,75.22
2023-02-23T11:22:08.133Z,76.86
2023-02-23T11:23:14.142Z,78.49
2023-02-23T11:24:10.101Z,76.83
2023-02-23T11:25:08.105Z,80.22
2023-02-23T11:26:08.132Z,71.70
2023-02-23T11:27:08.103Z,72.81
2023-02-23T11:28:08.185Z,79.55
2023-02-23T11:29:08.088Z,76.19
2023-02-23T11:30:08.084Z,73.26
2023-02-23T11:31:08.286Z,71.95
2023-02-23T11:32:10.280Z,73.49
2023-02-23T11:33:09.062Z,76.08
2023-02-23T11:34:08.033Z,77.51
2023-02-23T11:35:08.069Z,75.12
2023-02-23T11:36:08.038Z,74.96
2023-02-23T11:37:08.061Z,74.40
2023-02-23T11:38:08.021Z,75.17
2023-02-23T11:39:08.030Z,75.01
2023-02-23T11:40:08.015Z,73.53
2023-02-23T11:41:07.988Z,76.91
2023-02-23T11:42:08.021Z,74.33
2023-02-23T11:43:08.012Z,77.97
2023-02-23T11:44:07.976Z,78.41
2023-02-23T11:45:07.985Z,78.47
2023-02-23T11:46:08.022Z,74.28
2023-02-23T11:47:07.974Z,79.84
2023-02-23T11:48:07.969Z,75.65
2023-02-23T11:49:07.965Z,76.08
2023-02-23T11:50:07.959Z,73.96
2023-02-23T11:51:07.941Z,75.70
2023-02-23T11:52:07.939Z,73.57
2023-02-23T11:53:07.965Z,71.97
2023-02-23T11:54:07.927Z,74.03
2023-02-23T11:55:07.937Z,70.91
2023-02-23T11:56:08.100Z,72.78
2023-02-23T11:57:07.912Z,68.81
2023-02-23T11:58:07.943Z,72.38
2023-02-23T11:59:07.905Z,71.50
2023-02-23T12:00:07.901Z,71.34
2023-02-23T12:01:07.914Z,71.05
2023-02-23T12:02:07.890Z,68.29
2023-02-23T12:03:07.986Z,68.10
2023-02-23T12:04:07.903Z,72.18
2023-02-23T12:05:07.967Z,70.70
2023-02-23T12:06:07.918Z,70.69
2023-02-23T12:07:07.950Z,72.02
2023-02-23T12:08:07.957Z,72.53
2023-02-23T12:09:07.855Z,69.30
2023-02-23T12:10:07.860Z,70.38
2023-02-23T12:11:07.884Z,68.58
2023-02-23T12:12:07.833Z,72.46
2023-02-23T12:13:07.886Z,69.42
2023-02-23T12:14:07.851Z,74.32
2023-02-23T12:15:07.861Z,70.13
2023-02-23T12:16:07.900Z,74.15
2023-02-23T12:17:07.839Z,72.03
2023-02-23T12:18:07.810Z,69.80
2023-02-23T12:19:07.829Z,68.91
2023-02-23T12:20:07.801Z,71.32
2023-02-23T12:21:07.839Z,71.19
2023-02-23T12:22:07.813Z,73.20
2023-02-23T12:23:07.773Z,72.53
2023-02-23T12:24:07.780Z,73.65
2023-02-23T12:25:07.783Z,71.84
2023-02-23T12:26:07.761Z,70.08
2023-02-23T12:27:08.805Z,74.32
2023-02-23T12:28:18.323Z,67.11
2023-02-23T12:29:09.788Z,70.39
2023-02-23T12:30:09.237Z,72.54
2023-02-23T12:31:08.742Z,72.15
2023-02-23T12:32:07.817Z,73.18
2023-02-23T12:33:07.718Z,76.07
2023-02-23T12:34:08.372Z,71.31
2023-02-23T12:35:07.775Z,75.73
2023-02-23T12:36:07.718Z,69.67
2023-02-23T12:37:07.685Z,70.03
2023-02-23T12:38:07.671Z,68.46
2023-02-23T12:39:07.668Z,69.97
2023-02-23T12:40:07.731Z,72.61
2023-02-23T12:41:07.656Z,74.97
2023-02-23T12:42:07.657Z,74.41
2023-02-23T12:43:07.652Z,73.69
2023-02-23T12:44:07.671Z,75.11
2023-02-23T12:45:07.666Z,69.58
2023-02-23T12:46:08.736Z,71.72
2023-02-23T12:47:08.648Z,71.89
2023-02-23T12:48:07.625Z,71.40
2023-02-23T12:49:07.685Z,71.94
2023-02-23T12:50:07.646Z,70.19
2023-02-23T12:51:07.716Z,71.00
2023-02-23T12:52:07.590Z,75.65